createdAt,value
2023-01-19T00:00:52.029Z,13.60
2023-01-19T00:03:18.809Z,12.33
2023-01-19T00:05:46.028Z,12.53
2023-01-19T00:08:16.171Z,14.17
2023-01-19T00:10:45.020Z,12.00
2023-01-19T00:13:12.635Z,13.30
2023-01-19T00:15:39.411Z,13.70
2023-01-19T00:18:06.151Z,14.70
2023-01-19T00:20:35.425Z,13.10
2023-01-19T00:23:03.041Z,13.67
2023-01-19T00:25:29.995Z,12.83
2023-01-19T00:27:57.174Z,12.90
2023-01-19T00:30:24.134Z,14.00
2023-01-19T00:32:50.881Z,11.97
2023-01-19T00:35:17.692Z,13.97
2023-01-19T00:37:47.402Z,13.70
2023-01-19T00:40:14.523Z,15.27
2023-01-19T00:42:44.290Z,14.60
2023-01-19T00:45:13.822Z,14.23
2023-01-19T00:47:40.921Z,13.50
2023-01-19T00:50:11.910Z,14.27
2023-01-19T00:52:40.113Z,14.00
2023-01-19T00:55:15.484Z,16.73
2023-01-19T00:57:42.965Z,14.80
2023-01-19T01:00:15.504Z,16.03
2023-01-19T01:02:44.344Z,13.73
2023-01-19T01:05:12.171Z,14.77
2023-01-19T01:07:45.152Z,13.40
2023-01-19T01:10:15.926Z,12.53
2023-01-19T01:12:56.202Z,14.20
2023-01-19T01:15:26.521Z,12.77
2023-01-19T01:17:53.554Z,13.83
2023-01-19T01:20:23.914Z,14.10
2023-01-19T01:22:53.389Z,13.77
2023-01-19T01:25:22.703Z,13.40
2023-01-19T01:27:49.963Z,14.50
2023-01-19T01:30:16.913Z,12.80
2023-01-19T01:32:43.795Z,14.20
2023-01-19T01:35:11.385Z,13.53
2023-01-19T01:37:38.486Z,13.77
2023-01-19T01:40:06.750Z,13.87
2023-01-19T01:42:34.378Z,13.93
2023-01-19T01:45:07.501Z,13.53
2023-01-19T01:47:45.750Z,13.50
2023-01-19T01:50:26.244Z,12.73
2023-01-19T01:53:07.704Z,12.90
2023-01-19T01:55:43.603Z,12.80
2023-01-19T01:58:11.766Z,13.17
2023-01-19T02:00:58.458Z,12.90
2023-01-19T02:03:26.879Z,11.37
2023-01-19T02:05:59.244Z,12.63
2023-01-19T02:08:53.038Z,11.90
2023-01-19T02:11:38.658Z,12.07
2023-01-19T02:14:06.212Z,12.60
2023-01-19T02:16:33.857Z,12.17
2023-01-19T02:19:01.331Z,12.53
2023-01-19T02:21:46.824Z,11.43
2023-01-19T02:24:14.037Z,11.77
2023-01-19T02:26:45.501Z,11.93
2023-01-19T02:29:20.731Z,12.57
2023-01-19T02:31:47.919Z,12.37
2023-01-19T02:34:19.724Z,11.97
2023-01-19T02:36:54.720Z,13.17
2023-01-19T02:39:31.697Z,12.63
2023-01-19T02:42:22.990Z,12.40
2023-01-19T02:44:52.734Z,13.43
2023-01-19T02:47:19.819Z,11.23
2023-01-19T02:49:58.779Z,12.27
2023-01-19T02:52:26.698Z,11.27
2023-01-19T02:54:56.266Z,11.37
2023-01-19T02:57:44.367Z,12.33
2023-01-19T03:00:33.304Z,13.53
2023-01-19T03:03:30.804Z,13.93
2023-01-19T03:06:40.196Z,12.13
2023-01-19T03:09:41.372Z,12.43
2023-01-19T03:12:44.600Z,14.43
2023-01-19T03:15:22.223Z,11.93
2023-01-19T03:17:50.701Z,12.80
2023-01-19T03:20:22.436Z,13.27
2023-01-19T03:23:11.426Z,13.23
2023-01-19T03:25:42.825Z,13.60
2023-01-19T03:28:09.981Z,13.77
2023-01-19T03:30:46.543Z,13.87
2023-01-19T03:33:20.504Z,11.27
2023-01-19T03:35:52.408Z,15.73
2023-01-19T03:38:26.301Z,13.33
2023-01-19T03:40:58.833Z,13.47
2023-01-19T03:43:26.925Z,12.77
2023-01-19T03:45:55.853Z,13.80
2023-01-19T03:48:23.241Z,13.17
2023-01-19T03:50:51.364Z,13.80
2023-01-19T03:53:20.444Z,13.87
2023-01-19T03:55:48.368Z,13.60
2023-01-19T03:58:15.101Z,13.00
2023-01-19T04:00:41.823Z,14.50
2023-01-19T04:03:15.329Z,13.23
2023-01-19T04:05:42.379Z,14.23
2023-01-19T04:08:09.326Z,12.60
2023-01-19T04:10:36.771Z,15.00
2023-01-19T04:13:04.284Z,16.07
2023-01-19T04:15:32.674Z,13.17
2023-01-19T04:18:02.487Z,14.17
2023-01-19T04:20:29.810Z,12.67
2023-01-19T04:23:01.315Z,12.70
2023-01-19T04:25:28.409Z,12.87
2023-01-19T04:27:57.907Z,12.23
2023-01-19T04:30:25.627Z,13.90
2023-01-19T04:32:52.405Z,13.53
2023-01-19T04:35:19.468Z,13.77
2023-01-19T04:37:46.220Z,13.70
2023-01-19T04:40:12.985Z,13.90
2023-01-19T04:42:45.047Z,13.03
2023-01-19T04:45:15.258Z,13.50
2023-01-19T04:47:44.932Z,15.10
2023-01-19T04:50:12.114Z,14.63
2023-01-19T04:52:38.977Z,14.13
2023-01-19T04:55:07.109Z,14.73
2023-01-19T04:57:33.910Z,13.07
2023-01-19T05:00:00.848Z,14.70
2023-01-19T05:02:27.666Z,15.77
2023-01-19T05:04:54.554Z,14.53
2023-01-19T05:07:21.339Z,17.20
2023-01-19T05:09:48.048Z,16.50
2023-01-19T05:12:14.889Z,16.73
2023-01-19T05:14:41.684Z,15.00
2023-01-19T05:17:08.473Z,15.23
2023-01-19T05:19:35.479Z,15.90
2023-01-19T05:22:06.168Z,15.00
2023-01-19T05:24:33.118Z,14.10
2023-01-19T05:26:59.836Z,14.83
2023-01-19T05:29:26.680Z,13.27
2023-01-19T05:31:53.552Z,16.70
2023-01-19T05:34:20.277Z,14.00
2023-01-19T05:36:47.232Z,14.20
2023-01-19T05:39:14.104Z,15.37
2023-01-19T05:41:42.049Z,17.23
2023-01-19T05:44:10.043Z,15.20
2023-01-19T05:46:38.554Z,16.63
2023-01-19T05:49:07.250Z,15.50
2023-01-19T05:51:37.939Z,14.57
2023-01-19T05:54:06.712Z,15.03
2023-01-19T05:56:34.300Z,14.47
2023-01-19T05:59:01.191Z,15.20
2023-01-19T06:01:28.323Z,13.07
2023-01-19T06:03:55.427Z,14.80
2023-01-19T06:06:22.145Z,15.70
2023-01-19T06:08:48.972Z,13.73
2023-01-19T06:11:15.896Z,14.03
2023-01-19T06:13:42.810Z,14.20
2023-01-19T06:16:10.529Z,14.67
2023-01-19T06:18:37.320Z,15.67
2023-01-19T06:21:09.330Z,14.10
2023-01-19T06:23:36.441Z,14.33
2023-01-19T06:26:03.989Z,14.23
2023-01-19T06:28:30.820Z,13.33
2023-01-19T06:30:57.833Z,13.30
2023-01-19T06:33:25.475Z,13.60
2023-01-19T06:35:52.442Z,15.87
2023-01-19T06:38:19.936Z,13.00
2023-01-19T06:40:52.799Z,12.93
2023-01-19T06:43:20.441Z,14.20
2023-01-19T06:45:47.803Z,12.50
2023-01-19T06:48:14.604Z,12.90
2023-01-19T06:50:41.545Z,14.23
2023-01-19T06:53:08.415Z,12.83
2023-01-19T06:55:36.485Z,13.13
2023-01-19T06:58:03.326Z,12.47
2023-01-19T07:00:30.146Z,13.23
2023-01-19T07:02:57.165Z,13.67
2023-01-19T07:05:24.451Z,13.60
2023-01-19T07:07:55.621Z,12.20
2023-01-19T07:10:23.267Z,13.67
2023-01-19T07:12:50.499Z,13.77
2023-01-19T07:15:22.549Z,12.00
2023-01-19T07:17:49.783Z,11.20
2023-01-19T07:20:17.545Z,12.10
2023-01-19T07:22:46.576Z,12.63
2023-01-19T07:25:14.039Z,13.77
2023-01-19T07:27:40.946Z,12.03
2023-01-19T07:30:08.671Z,12.53
2023-01-19T07:32:35.973Z,12.00
2023-01-19T07:35:03.309Z,14.03
2023-01-19T07:37:30.083Z,18.93
2023-01-19T07:39:56.821Z,17.10
2023-01-19T07:42:23.608Z,15.00
2023-01-19T07:44:50.304Z,15.93
2023-01-19T07:47:17.189Z,13.27
2023-01-19T07:49:43.937Z,11.70
2023-01-19T07:52:11.028Z,12.10
2023-01-19T07:54:38.493Z,13.80
2023-01-19T07:57:05.336Z,10.90
2023-01-19T07:59:32.405Z,11.93
2023-01-19T08:01:59.838Z,15.60
2023-01-19T08:04:29.965Z,12.27
2023-01-19T08:06:56.886Z,14.97
2023-01-19T08:09:24.395Z,13.27
2023-01-19T08:11:51.236Z,11.90
2023-01-19T08:14:18.122Z,13.10
2023-01-19T08:16:44.916Z,11.60
2023-01-19T08:19:11.745Z,11.60
2023-01-19T08:21:39.022Z,10.37
2023-01-19T08:24:06.192Z,10.20
2023-01-19T08:26:35.433Z,10.90
2023-01-19T08:29:05.096Z,9.60
2023-01-19T08:31:31.975Z,10.53
2023-01-19T08:33:58.995Z,10.97
2023-01-19T08:36:26.200Z,10.57
2023-01-19T08:38:52.990Z,10.80
2023-01-19T08:41:19.923Z,9.30
2023-01-19T08:43:46.837Z,11.33
2023-01-19T08:46:17.503Z,11.00
2023-01-19T08:48:50.988Z,11.37
2023-01-19T08:51:18.404Z,10.30
2023-01-19T08:53:45.196Z,10.20
2023-01-19T08:56:13.745Z,10.00
2023-01-19T08:58:45.701Z,9.90
2023-01-19T09:01:20.696Z,10.97
2023-01-19T09:03:47.913Z,10.13
2023-01-19T09:06:19.147Z,10.23
2023-01-19T09:08:47.261Z,9.33
2023-01-19T09:11:16.442Z,9.70
2023-01-19T09:13:43.661Z,9.47
2023-01-19T09:16:13.314Z,11.33
2023-01-19T09:18:40.249Z,9.73
2023-01-19T09:21:08.260Z,10.33
2023-01-19T09:23:34.994Z,8.60
2023-01-19T09:26:04.100Z,9.87
2023-01-19T09:28:31.160Z,10.10
2023-01-19T09:30:58.045Z,9.20
2023-01-19T09:33:24.846Z,9.97
2023-01-19T09:35:52.057Z,10.20
2023-01-19T09:38:19.919Z,9.90
2023-01-19T09:40:53.296Z,10.10
2023-01-19T09:43:34.840Z,8.33
2023-01-19T09:46:22.999Z,8.10
2023-01-19T09:48:56.530Z,8.53
2023-01-19T09:51:35.007Z,8.43
2023-01-19T09:54:18.362Z,9.67
2023-01-19T09:56:47.112Z,12.83
2023-01-19T09:59:25.155Z,12.83
2023-01-19T10:02:35.655Z,9.27
2023-01-19T10:05:03.260Z,8.67
2023-01-19T10:07:53.153Z,7.90
2023-01-19T10:10:33.152Z,9.77
2023-01-19T10:13:03.098Z,8.33
2023-01-19T10:15:38.968Z,8.00
2023-01-19T10:18:34.573Z,9.10
2023-01-19T10:21:36.151Z,9.50
2023-01-19T10:24:25.586Z,9.07
2023-01-19T10:26:54.862Z,7.90
2023-01-19T10:29:24.280Z,9.03
2023-01-19T10:31:59.939Z,8.37
2023-01-19T10:34:27.156Z,9.17
2023-01-19T10:37:02.594Z,9.23
2023-01-19T10:39:29.329Z,7.67
2023-01-19T10:42:03.926Z,9.10
2023-01-19T10:44:36.616Z,7.57
2023-01-19T10:47:06.348Z,10.23
2023-01-19T10:49:42.879Z,9.07
2023-01-19T10:52:34.070Z,7.63
2023-01-19T10:55:03.841Z,7.93
2023-01-19T10:57:36.589Z,8.57
2023-01-19T11:00:06.052Z,7.77
2023-01-19T11:02:33.772Z,9.40
2023-01-19T11:05:25.053Z,8.30
2023-01-19T11:07:51.903Z,8.17
2023-01-19T11:10:22.139Z,8.10
2023-01-19T11:13:07.739Z,7.37
2023-01-19T11:15:40.730Z,7.83
2023-01-19T11:18:08.014Z,8.20
2023-01-19T11:20:44.154Z,7.47
2023-01-19T11:23:29.507Z,7.53
2023-01-19T11:26:01.633Z,7.40
2023-01-19T11:28:39.540Z,8.60
2023-01-19T11:31:15.504Z,7.70
2023-01-19T11:33:50.538Z,7.20
2023-01-19T11:36:29.700Z,7.33
2023-01-19T11:39:13.404Z,7.03
2023-01-19T11:41:41.203Z,8.00
2023-01-19T11:44:30.825Z,10.23
2023-01-19T11:47:00.970Z,7.37
2023-01-19T11:49:45.350Z,7.30
2023-01-19T11:52:40.769Z,9.83
2023-01-19T11:55:17.630Z,8.73
2023-01-19T11:57:50.696Z,7.70
2023-01-19T12:00:23.183Z,7.20
2023-01-19T12:03:04.297Z,7.87
2023-01-19T12:05:34.186Z,6.83
2023-01-19T12:08:06.718Z,6.70
2023-01-19T12:10:43.570Z,7.30
2023-01-19T12:13:22.321Z,6.90
2023-01-19T12:15:58.090Z,6.60
2023-01-19T12:18:33.851Z,7.00
2023-01-19T12:21:03.647Z,7.77
2023-01-19T12:23:49.403Z,6.80
2023-01-19T12:26:16.162Z,6.20
2023-01-19T12:28:46.556Z,8.87
2023-01-19T12:31:18.427Z,6.77
2023-01-19T12:33:45.987Z,6.73
2023-01-19T12:36:28.050Z,6.37
2023-01-19T12:39:02.804Z,7.93
2023-01-19T12:41:37.123Z,6.13
2023-01-19T12:44:10.189Z,10.27
2023-01-19T12:46:50.937Z,5.23
2023-01-19T12:49:34.862Z,6.10
2023-01-19T12:52:28.885Z,5.60
2023-01-19T12:55:13.253Z,6.53
2023-01-19T12:57:55.236Z,7.20
2023-01-19T13:00:22.042Z,5.73
2023-01-19T13:02:56.270Z,7.23
2023-01-19T13:05:47.529Z,5.60
2023-01-19T13:08:16.134Z,7.70
2023-01-19T13:11:02.049Z,5.63
2023-01-19T13:13:40.258Z,6.73
2023-01-19T13:16:19.232Z,9.07
2023-01-19T13:18:48.723Z,7.53
2023-01-19T13:21:32.782Z,7.70
2023-01-19T13:24:07.398Z,7.73
2023-01-19T13:27:03.474Z,8.77
2023-01-19T13:29:40.374Z,7.60
2023-01-19T13:32:17.619Z,7.57
2023-01-19T13:35:05.405Z,9.10
2023-01-19T13:37:41.725Z,8.83
2023-01-19T13:40:21.781Z,9.00
2023-01-19T13:42:49.580Z,8.30
2023-01-19T13:45:25.055Z,7.20
2023-01-19T13:47:53.947Z,7.33
2023-01-19T13:50:23.490Z,9.20
2023-01-19T13:52:53.787Z,8.40
2023-01-19T13:55:21.036Z,7.57
2023-01-19T13:57:49.304Z,8.33
2023-01-19T14:00:20.520Z,7.80
2023-01-19T14:02:59.271Z,7.77
2023-01-19T14:05:33.979Z,8.07
2023-01-19T14:08:03.223Z,7.83
2023-01-19T14:10:31.290Z,10.27
2023-01-19T14:13:00.196Z,9.03
2023-01-19T14:15:28.343Z,11.30
2023-01-19T14:18:16.783Z,11.90
2023-01-19T14:20:53.696Z,10.40
2023-01-19T14:23:44.663Z,9.27
2023-01-19T14:26:39.386Z,8.50
2023-01-19T14:29:33.096Z,9.97
2023-01-19T14:32:27.760Z,9.00
2023-01-19T14:35:04.250Z,8.80
2023-01-19T14:37:36.616Z,9.30
2023-01-19T14:40:11.916Z,9.63
2023-01-19T14:42:47.649Z,10.30
2023-01-19T14:45:16.571Z,11.83
2023-01-19T14:47:45.663Z,11.30
2023-01-19T14:50:37.650Z,9.80
2023-01-19T14:53:07.496Z,9.43
2023-01-19T14:55:45.073Z,8.73
2023-01-19T14:58:14.344Z,9.20
2023-01-19T15:00:42.504Z,9.30
2023-01-19T15:03:12.636Z,10.83
2023-01-19T15:05:41.727Z,10.17
2023-01-19T15:08:13.576Z,9.90
2023-01-19T15:10:40.574Z,11.10
2023-01-19T15:13:10.970Z,9.07
2023-01-19T15:15:37.774Z,9.77
2023-01-19T15:18:06.730Z,10.87
2023-01-19T15:20:33.507Z,14.87
2023-01-19T15:23:00.210Z,18.30
2023-01-19T15:25:27.001Z,14.03
2023-01-19T15:27:58.368Z,11.93
2023-01-19T15:30:30.855Z,12.40
2023-01-19T15:32:58.874Z,14.57
2023-01-19T15:35:28.760Z,12.43
2023-01-19T15:37:55.494Z,11.20
2023-01-19T15:40:23.474Z,13.10
2023-01-19T15:42:50.792Z,11.47
2023-01-19T15:45:26.674Z,10.30
2023-01-19T15:47:53.469Z,10.70
2023-01-19T15:50:20.163Z,9.77
2023-01-19T15:52:46.905Z,13.07
2023-01-19T15:55:15.923Z,14.50
2023-01-19T15:57:42.722Z,14.30
2023-01-19T16:00:10.895Z,10.43
2023-01-19T16:02:38.177Z,10.27
2023-01-19T16:05:05.404Z,11.70
2023-01-19T16:07:33.608Z,13.00
2023-01-19T16:10:01.011Z,11.17
2023-01-19T16:12:29.194Z,15.10
2023-01-19T16:14:55.952Z,15.57
2023-01-19T16:17:22.901Z,14.60
2023-01-19T16:19:49.637Z,15.10
2023-01-19T16:22:16.446Z,14.73
2023-01-19T16:24:43.113Z,14.70
2023-01-19T16:27:09.892Z,10.47
2023-01-19T16:29:36.693Z,10.70
2023-01-19T16:32:03.534Z,10.23
2023-01-19T16:34:30.333Z,10.97
2023-01-19T16:36:57.040Z,11.87
2023-01-19T16:39:23.759Z,11.00
2023-01-19T16:41:50.534Z,11.07
2023-01-19T16:44:17.757Z,11.63
2023-01-19T16:46:46.090Z,24.07
2023-01-19T16:49:21.404Z,19.40
2023-01-19T16:51:48.916Z,15.47
2023-01-19T16:54:18.716Z,16.03
2023-01-19T16:56:45.777Z,15.93
2023-01-19T16:59:13.996Z,15.00
2023-01-19T17:01:41.122Z,22.43
2023-01-19T17:04:07.958Z,20.83
2023-01-19T17:06:34.692Z,20.03
2023-01-19T17:09:01.370Z,16.13
2023-01-19T17:11:30.261Z,16.00
2023-01-19T17:14:05.595Z,15.03
2023-01-19T17:16:34.409Z,14.50
2023-01-19T17:19:03.819Z,15.97
2023-01-19T17:21:30.819Z,13.70
2023-01-19T17:23:59.180Z,15.13
2023-01-19T17:26:28.340Z,16.33
2023-01-19T17:29:13.348Z,15.20
2023-01-19T17:31:40.429Z,15.20
2023-01-19T17:34:08.693Z,19.03
2023-01-19T17:36:35.768Z,16.30
2023-01-19T17:39:07.084Z,15.70
2023-01-19T17:41:35.270Z,12.10
2023-01-19T17:44:03.963Z,14.43
2023-01-19T17:46:31.621Z,12.27
2023-01-19T17:49:01.545Z,13.07
2023-01-19T17:51:29.277Z,13.63
2023-01-19T17:53:56.920Z,14.13
2023-01-19T17:56:28.329Z,13.93
2023-01-19T17:58:56.382Z,15.07
2023-01-19T18:01:28.704Z,14.83
2023-01-19T18:03:56.104Z,14.17
2023-01-19T18:06:23.437Z,14.87
2023-01-19T18:08:51.166Z,15.50
2023-01-19T18:11:19.658Z,15.37
2023-01-19T18:13:48.401Z,14.80
2023-01-19T18:16:24.064Z,15.80
2023-01-19T18:18:53.630Z,14.33
2023-01-19T18:21:22.055Z,15.33
2023-01-19T18:23:50.995Z,14.53
2023-01-19T18:26:23.005Z,15.20
2023-01-19T18:28:50.120Z,14.93
2023-01-19T18:31:19.120Z,15.23
2023-01-19T18:33:47.939Z,15.80
2023-01-19T18:36:15.274Z,17.60
2023-01-19T18:38:42.743Z,16.03
2023-01-19T18:41:15.029Z,18.77
2023-01-19T18:43:42.060Z,17.70
2023-01-19T18:46:09.756Z,17.43
2023-01-19T18:48:38.189Z,14.63
2023-01-19T18:51:14.657Z,17.43
2023-01-19T18:53:42.370Z,17.87
2023-01-19T18:56:12.959Z,18.17
2023-01-19T18:58:40.241Z,17.80
2023-01-19T19:01:25.490Z,16.03
2023-01-19T19:03:53.767Z,16.43
2023-01-19T19:06:21.671Z,26.87
2023-01-19T19:08:52.027Z,26.83
2023-01-19T19:11:20.778Z,23.57
2023-01-19T19:13:53.071Z,21.10
2023-01-19T19:16:19.936Z,20.90
2023-01-19T19:18:49.827Z,21.93
2023-01-19T19:21:18.290Z,21.27
2023-01-19T19:23:54.021Z,19.10
2023-01-19T19:26:21.046Z,17.67
2023-01-19T19:28:47.931Z,16.63
2023-01-19T19:31:22.559Z,15.57
2023-01-19T19:33:51.008Z,17.60
2023-01-19T19:36:20.002Z,16.33
2023-01-19T19:38:48.031Z,15.93
2023-01-19T19:41:23.790Z,15.73
2023-01-19T19:43:50.980Z,15.87
2023-01-19T19:46:20.129Z,17.47
2023-01-19T19:48:48.140Z,17.53
2023-01-19T19:51:23.846Z,17.03
2023-01-19T19:53:51.873Z,17.53
2023-01-19T19:56:21.283Z,15.83
2023-01-19T19:58:48.955Z,17.93
2023-01-19T20:01:21.239Z,18.20
2023-01-19T20:03:48.915Z,17.83
2023-01-19T20:06:20.776Z,18.90
2023-01-19T20:08:51.051Z,17.97
2023-01-19T20:11:30.985Z,17.57
2023-01-19T20:13:57.945Z,17.80
2023-01-19T20:16:25.029Z,18.37
2023-01-19T20:18:56.659Z,20.17
2023-01-19T20:21:29.113Z,20.50
2023-01-19T20:23:59.095Z,17.90
2023-01-19T20:26:28.986Z,18.27
2023-01-19T20:28:59.880Z,18.03
2023-01-19T20:31:32.187Z,18.70
2023-01-19T20:34:00.956Z,17.27
2023-01-19T20:36:29.000Z,17.40
2023-01-19T20:38:56.582Z,17.10
2023-01-19T20:41:24.250Z,19.00
2023-01-19T20:43:51.546Z,17.80
2023-01-19T20:46:18.996Z,17.17
2023-01-19T20:48:50.801Z,16.87
2023-01-19T20:51:18.794Z,18.33
2023-01-19T20:53:46.286Z,18.57
2023-01-19T20:56:14.986Z,19.23
2023-01-19T20:58:42.012Z,19.80
2023-01-19T21:01:23.927Z,20.03
2023-01-19T21:03:51.908Z,21.57
2023-01-19T21:06:20.623Z,19.30
2023-01-19T21:08:50.063Z,19.10
2023-01-19T21:11:21.331Z,18.60
2023-01-19T21:13:49.083Z,17.97
2023-01-19T21:16:16.054Z,18.27
2023-01-19T21:18:43.184Z,19.43
2023-01-19T21:21:20.877Z,17.50
2023-01-19T21:23:59.976Z,18.13
2023-01-19T21:26:29.637Z,17.80
2023-01-19T21:29:01.164Z,18.00
2023-01-19T21:31:28.353Z,17.27
2023-01-19T21:33:56.164Z,16.80
2023-01-19T21:36:24.599Z,17.27
2023-01-19T21:38:52.635Z,19.27
2023-01-19T21:41:19.861Z,17.87
2023-01-19T21:43:46.969Z,16.87
2023-01-19T21:46:17.099Z,17.53
2023-01-19T21:48:44.021Z,15.97
2023-01-19T21:51:10.837Z,17.20
2023-01-19T21:53:37.793Z,15.40
2023-01-19T21:56:11.261Z,15.57
2023-01-19T21:58:38.640Z,17.30
2023-01-19T22:01:15.387Z,15.30
2023-01-19T22:03:42.860Z,16.23
2023-01-19T22:06:12.858Z,14.90
2023-01-19T22:08:41.717Z,15.53
2023-01-19T22:11:11.645Z,15.73
2023-01-19T22:13:38.917Z,16.00
2023-01-19T22:16:09.003Z,15.13
2023-01-19T22:18:36.610Z,15.67
2023-01-19T22:21:21.039Z,17.37
2023-01-19T22:23:56.496Z,16.37
2023-01-19T22:26:23.408Z,16.10
2023-01-19T22:28:57.126Z,15.80
2023-01-19T22:31:25.306Z,16.50
2023-01-19T22:33:52.492Z,16.73
2023-01-19T22:36:22.544Z,16.57
2023-01-19T22:39:00.498Z,16.40
2023-01-19T22:41:32.955Z,16.80
2023-01-19T22:44:01.966Z,17.20
2023-01-19T22:46:30.822Z,16.67
2023-01-19T22:48:58.099Z,16.20
2023-01-19T22:51:25.769Z,19.63
2023-01-19T22:53:52.959Z,20.63
2023-01-19T22:56:24.607Z,19.70
2023-01-19T22:58:52.093Z,23.87
2023-01-19T23:01:20.858Z,18.40
2023-01-19T23:03:48.080Z,16.63
2023-01-19T23:06:21.469Z,16.70
2023-01-19T23:08:48.400Z,17.00
2023-01-19T23:11:21.227Z,15.93
2023-01-19T23:13:48.236Z,19.13
2023-01-19T23:16:15.268Z,17.90
2023-01-19T23:18:43.101Z,17.90
2023-01-19T23:21:15.965Z,19.10
2023-01-19T23:23:43.776Z,16.97
2023-01-19T23:26:16.285Z,17.63
2023-01-19T23:28:43.984Z,16.60
2023-01-19T23:31:30.129Z,20.80
2023-01-19T23:34:02.704Z,19.87
2023-01-19T23:36:32.653Z,18.27
2023-01-19T23:39:02.741Z,18.30
2023-01-19T23:41:31.379Z,16.77
2023-01-19T23:43:58.744Z,17.80
2023-01-19T23:46:25.617Z,17.43
2023-01-19T23:48:52.863Z,17.03
2023-01-19T23:51:25.377Z,17.43
2023-01-19T23:53:52.419Z,18.67
2023-01-19T23:56:24.941Z,17.37
2023-01-19T23:59:00.769Z,16.73
